Time;durP1;ratioP1;P1;durP2;ratioP2;P2;SDS_P1;SDS_P2;PMS_P1;PMS_P2;Temp;Humidity;BMP_temperature;BMP_pressure;BME280_temperature;BME280_humidity;BME280_pressure;Samples;Min_cycle;Max_cycle;Signal;HPM_P1;HPM_P2
2021/10/17 00:00:16;;;;;;;12.10;8.02;;;;;;;5.69;72.53;99477.97;5051569;28;20086;-63
2021/10/17 00:02:43;;;;;;;14.93;7.60;;;;;;;5.68;72.60;99481.59;5053106;28;20135;-62
2021/10/17 00:05:10;;;;;;;10.77;7.38;;;;;;;5.65;72.24;99487.94;5053360;28;20029;-62
2021/10/17 00:07:36;;;;;;;13.55;8.02;;;;;;;5.60;72.35;99482.09;5034901;28;20021;-62
2021/10/17 00:10:04;;;;;;;11.95;7.28;;;;;;;5.65;72.33;99484.44;5051663;28;20489;-63
2021/10/17 00:12:30;;;;;;;15.65;8.07;;;;;;;5.49;72.13;99447.44;5035046;28;20041;-63
2021/10/17 00:14:56;;;;;;;10.38;6.90;;;;;;;5.68;72.09;99470.97;5053443;28;20481;-65
2021/10/17 00:17:21;;;;;;;12.45;7.57;;;;;;;5.69;71.68;99462.03;5052632;28;20033;-63
2021/10/17 00:19:47;;;;;;;15.45;8.23;;;;;;;5.83;71.24;99474.41;5034045;28;20040;-62
2021/10/17 00:22:12;;;;;;;12.18;8.35;;;;;;;5.81;71.29;99466.56;5034908;28;20048;-63
2021/10/17 00:24:38;;;;;;;12.57;7.65;;;;;;;5.82;71.51;99481.53;5051774;28;20033;-63
2021/10/17 00:27:03;;;;;;;11.45;7.35;;;;;;;5.84;71.48;99492.91;5052496;28;20029;-65
2021/10/17 00:29:29;;;;;;;11.55;7.35;;;;;;;5.84;71.20;99476.09;5052322;28;20033;-65
2021/10/17 00:31:54;;;;;;;12.60;7.45;;;;;;;5.59;71.38;99443.19;5053122;28;20037;-64
2021/10/17 00:34:20;;;;;;;11.77;8.02;;;;;;;5.74;71.48;99483.81;5052826;28;20104;-62
2021/10/17 00:36:47;;;;;;;15.43;7.18;;;;;;;5.68;71.88;99468.31;5051161;28;20380;-63
2021/10/17 00:39:12;;;;;;;13.02;7.60;;;;;;;5.64;72.17;99464.16;5034317;28;20108;-63
2021/10/17 00:41:38;;;;;;;12.57;7.38;;;;;;;5.42;72.48;99449.63;5042344;28;20432;-64
2021/10/17 00:44:03;;;;;;;13.30;7.40;;;;;;;5.51;71.95;99470.25;5052343;28;20032;-63
2021/10/17 00:46:29;;;;;;;14.02;8.10;;;;;;;5.44;72.28;99461.88;5051935;28;20037;-65
2021/10/17 00:48:55;;;;;;;12.77;7.93;;;;;;;5.48;72.70;99475.75;5034348;28;20029;-62
2021/10/17 00:51:21;;;;;;;13.05;7.68;;;;;;;5.48;72.76;99464.31;5050886;28;20083;-63
2021/10/17 00:53:47;;;;;;;14.65;8.02;;;;;;;5.46;72.92;99459.09;5050449;28;20397;-64
2021/10/17 00:56:12;;;;;;;12.23;8.02;;;;;;;5.45;73.03;99465.34;5052347;28;20032;-63
2021/10/17 00:58:38;;;;;;;13.15;7.90;;;;;;;5.24;73.27;99419.81;5034455;28;20029;-62
2021/10/17 01:01:03;;;;;;;12.38;7.13;;;;;;;5.48;72.81;99467.81;5051834;28;20449;-62
2021/10/17 01:03:29;;;;;;;13.60;7.75;;;;;;;5.46;72.84;99470.56;5052211;28;20044;-63
2021/10/17 01:05:56;;;;;;;12.90;7.55;;;;;;;5.38;72.93;99464.88;5034551;28;20057;-62
2021/10/17 01:08:22;;;;;;;14.27;8.27;;;;;;;5.40;72.87;99468.28;5049964;28;20381;-63
2021/10/17 01:10:48;;;;;;;11.15;7.18;;;;;;;5.30;73.13;99454.78;5049368;28;20465;-63
2021/10/17 01:13:15;;;;;;;16.00;7.75;;;;;;;5.37;73.02;99471.16;5050258;28;20159;-62
2021/10/17 01:15:41;;;;;;;12.20;7.97;;;;;;;5.33;73.20;99464.34;5051004;28;20389;-63
2021/10/17 01:18:06;;;;;;;13.07;7.80;;;;;;;5.37;73.19;99470.31;5049919;28;20055;-62
2021/10/17 01:20:32;;;;;;;15.43;7.95;;;;;;;5.37;72.95;99478.28;5050897;28;20490;-65
2021/10/17 01:22:57;;;;;;;15.10;8.35;;;;;;;5.39;73.12;99471.06;5051965;28;20033;-62
2021/10/17 01:25:23;;;;;;;11.73;7.32;;;;;;;5.44;73.07;99474.28;5051327;28;20583;-61
2021/10/17 01:27:48;;;;;;;10.25;7.00;;;;;;;5.48;72.52;99465.16;5051621;28;20029;-62
2021/10/17 01:30:17;;;;;;;15.45;7.00;;;;;;;5.54;72.21;99466.56;5051414;28;20476;-63
2021/10/17 01:32:42;;;;;;;13.10;7.53;;;;;;;5.35;72.18;99430.59;5050934;28;20078;-62
2021/10/17 01:35:08;;;;;;;11.00;7.03;;;;;;;5.51;71.93;99459.63;5050350;28;20025;-61
2021/10/17 01:37:33;;;;;;;12.45;7.45;;;;;;;5.54;72.11;99455.94;5051599;28;20025;-62
2021/10/17 01:39:59;;;;;;;11.95;7.65;;;;;;;5.50;72.19;99457.09;5051980;28;20025;-61
2021/10/17 01:42:24;;;;;;;11.05;7.28;;;;;;;5.47;72.56;99458.13;5051249;28;20106;-61
2021/10/17 01:44:51;;;;;;;14.65;7.53;;;;;;;5.31;72.36;99435.25;5049584;28;20044;-61
2021/10/17 01:47:16;;;;;;;12.32;7.38;;;;;;;5.48;72.20;99461.66;5050566;28;20033;-61
2021/10/17 01:49:42;;;;;;;12.68;7.72;;;;;;;5.42;72.07;99466.38;5050653;28;20028;-61
2021/10/17 01:52:08;;;;;;;13.00;8.05;;;;;;;5.41;72.61;99464.69;5050566;28;20511;-62
2021/10/17 01:54:33;;;;;;;14.07;7.55;;;;;;;5.34;72.43;99457.25;5049320;28;20091;-62
2021/10/17 01:56:59;;;;;;;12.00;8.35;;;;;;;5.30;72.65;99445.97;5050418;28;20029;-63
2021/10/17 01:59:24;;;;;;;11.18;7.30;;;;;;;5.15;72.34;99426.56;5051435;28;20028;-61
2021/10/17 02:01:50;;;;;;;14.48;7.90;;;;;;;5.31;73.25;99458.28;5050699;28;20021;-61
2021/10/17 02:04:15;;;;;;;11.43;7.57;;;;;;;5.30;72.92;99460.09;5050632;28;20036;-61
2021/10/17 02:06:41;;;;;;;11.82;7.43;;;;;;;5.10;72.89;99424.22;5051003;28;20039;-62
2021/10/17 02:09:06;;;;;;;11.00;7.20;;;;;;;5.28;73.11;99458.50;5049604;28;20033;-61
2021/10/17 02:11:32;;;;;;;12.90;7.43;;;;;;;5.10;72.97;99423.38;5049548;28;20456;-61
2021/10/17 02:13:57;;;;;;;10.95;6.88;;;;;;;5.23;72.97;99444.66;5049785;28;20427;-61
2021/10/17 02:16:23;;;;;;;13.30;7.38;;;;;;;4.96;73.35;99403.88;5050187;28;20131;-62
2021/10/17 02:18:49;;;;;;;11.55;7.95;;;;;;;5.14;72.88;99433.69;5050661;28;20044;-62
2021/10/17 02:21:15;;;;;;;14.45;7.72;;;;;;;5.24;73.15;99441.06;5050476;28;20041;-62
2021/10/17 02:23:40;;;;;;;12.43;7.88;;;;;;;5.27;72.81;99436.38;5048962;28;20048;-62
2021/10/17 02:26:07;;;;;;;14.75;7.40;;;;;;;5.28;72.85;99440.75;5049069;28;20104;-61
2021/10/17 02:28:33;;;;;;;12.32;6.95;;;;;;;5.18;72.52;99426.38;5050956;28;20037;-61
2021/10/17 02:30:58;;;;;;;10.23;7.20;;;;;;;5.29;72.37;99441.59;5048202;28;20112;-61
2021/10/17 02:33:24;;;;;;;12.70;6.97;;;;;;;5.30;72.46;99436.22;5049354;28;20029;-63
2021/10/17 02:35:50;;;;;;;13.05;6.68;;;;;;;5.24;72.61;99425.97;5049339;28;20043;-61
2021/10/17 02:38:15;;;;;;;11.75;7.15;;;;;;;5.29;72.82;99437.13;5050138;28;20045;-62
2021/10/17 02:40:41;;;;;;;12.00;7.10;;;;;;;5.19;72.16;99416.63;5049683;28;20068;-60
2021/10/17 02:43:07;;;;;;;14.15;7.45;;;;;;;5.26;72.55;99415.28;5051936;28;20064;-62
2021/10/17 02:45:34;;;;;;;12.32;7.50;;;;;;;5.27;72.89;99431.06;5054072;28;20037;-63
2021/10/17 02:48:00;;;;;;;10.02;6.97;;;;;;;5.22;72.87;99417.25;5054704;28;20082;-61
2021/10/17 02:50:25;;;;;;;13.90;7.38;;;;;;;5.26;72.83;99418.75;5051740;28;20318;-62
2021/10/17 02:52:51;;;;;;;11.05;7.30;;;;;;;5.28;72.94;99421.31;5053898;28;20096;-60
2021/10/17 02:55:16;;;;;;;11.98;7.47;;;;;;;5.27;72.88;99411.66;5052526;28;20523;-61
2021/10/17 02:57:41;;;;;;;12.02;7.05;;;;;;;5.08;72.94;99385.47;5054218;28;20420;-62
2021/10/17 03:00:07;;;;;;;17.52;7.72;;;;;;;5.23;73.15;99410.16;5053258;28;20523;-62
2021/10/17 03:02:33;;;;;;;11.32;7.03;;;;;;;5.20;72.53;99413.03;5052847;28;20384;-63
2021/10/17 03:04:59;;;;;;;10.32;7.30;;;;;;;5.15;73.06;99411.50;5053923;28;20044;-61
2021/10/17 03:07:24;;;;;;;12.25;6.97;;;;;;;5.16;73.21;99418.50;5052746;28;20055;-61
2021/10/17 03:09:50;;;;;;;12.75;6.88;;;;;;;5.14;73.28;99415.09;5053731;28;20032;-62
2021/10/17 03:12:15;;;;;;;16.30;7.07;;;;;;;5.19;73.33;99422.78;5051897;28;20401;-61
2021/10/17 03:14:40;;;;;;;11.30;7.20;;;;;;;5.19;72.61;99422.78;5052728;28;20044;-65
2021/10/17 03:17:06;;;;;;;14.77;7.55;;;;;;;5.19;72.77;99417.47;5054474;28;20021;-63
2021/10/17 03:19:32;;;;;;;12.50;7.80;;;;;;;5.15;72.76;99421.28;5053093;28;20032;-63
2021/10/17 03:21:58;;;;;;;12.45;6.82;;;;;;;5.15;72.88;99426.56;5052288;28;20041;-64
2021/10/17 03:24:24;;;;;;;13.45;6.75;;;;;;;5.13;72.93;99424.00;5052847;28;20047;-63
2021/10/17 03:26:49;;;;;;;12.45;6.90;;;;;;;5.12;72.46;99422.31;5053852;28;20100;-63
2021/10/17 03:29:15;;;;;;;11.30;7.18;;;;;;;5.13;72.65;99421.34;5053619;28;20144;-63
2021/10/17 03:31:41;;;;;;;11.98;7.53;;;;;;;5.08;72.87;99414.66;5053456;28;20033;-64
2021/10/17 03:34:07;;;;;;;11.23;6.70;;;;;;;5.12;72.65;99424.13;5054045;28;20032;-64
2021/10/17 03:36:33;;;;;;;12.23;7.25;;;;;;;5.05;72.70;99414.84;5052196;28;20025;-64
2021/10/17 03:38:59;;;;;;;14.57;7.88;;;;;;;4.84;73.09;99378.16;5052765;28;20194;-65
2021/10/17 03:41:24;;;;;;;11.95;8.10;;;;;;;5.02;73.00;99405.28;5033203;28;20342;-63
2021/10/17 03:43:50;;;;;;;12.95;7.43;;;;;;;5.04;72.81;99414.00;5033932;28;20116;-64
2021/10/17 03:46:16;;;;;;;12.27;7.53;;;;;;;4.78;72.92;99373.22;5033523;28;20025;-63
2021/10/17 03:48:41;;;;;;;12.40;7.07;;;;;;;5.01;72.82;99407.06;5033366;28;20032;-63
2021/10/17 03:51:08;;;;;;;11.75;7.35;;;;;;;4.97;72.92;99408.22;5033441;28;20041;-64
2021/10/17 03:53:36;;;;;;;15.40;7.95;;;;;;;5.00;72.84;99394.75;5032402;28;20378;-64
2021/10/17 03:56:03;;;;;;;12.93;7.97;;;;;;;4.99;72.65;99408.97;5033319;28;20038;-62
2021/10/17 03:58:28;;;;;;;13.80;7.72;;;;;;;5.05;72.66;99412.19;5032949;28;20040;-64
2021/10/17 04:00:53;;;;;;;11.68;7.63;;;;;;;5.02;72.69;99411.44;5032763;28;20116;-64
2021/10/17 04:03:19;;;;;;;13.27;7.25;;;;;;;5.03;73.16;99415.78;5031822;28;20033;-63
2021/10/17 04:05:44;;;;;;;12.40;6.80;;;;;;;5.05;72.79;99404.22;5031762;28;20037;-64
2021/10/17 04:08:10;;;;;;;12.23;7.28;;;;;;;5.07;73.15;99412.97;5032776;28;20037;-64
2021/10/17 04:10:35;;;;;;;11.85;7.53;;;;;;;5.05;72.80;99404.22;5031464;28;20076;-64
2021/10/17 04:13:02;;;;;;;11.77;7.22;;;;;;;5.14;72.96;99409.78;5033027;28;20055;-63
2021/10/17 04:15:27;;;;;;;12.90;7.22;;;;;;;4.85;72.17;99359.47;5032986;28;20116;-61
2021/10/17 04:17:52;;;;;;;13.75;7.05;;;;;;;5.13;72.18;99397.47;5030955;28;20121;-64
2021/10/17 04:20:18;;;;;;;11.27;7.10;;;;;;;5.24;72.03;99402.09;5032770;28;20057;-63
2021/10/17 04:22:43;;;;;;;11.93;7.70;;;;;;;5.28;72.06;99408.88;5032880;28;20112;-63
2021/10/17 04:25:09;;;;;;;11.70;7.43;;;;;;;5.34;71.69;99412.13;5033270;28;20036;-63
2021/10/17 04:27:36;;;;;;;16.10;8.00;;;;;;;5.38;71.78;99410.97;5032552;28;20069;-61
2021/10/17 04:30:04;;;;;;;13.02;7.75;;;;;;;5.55;71.27;99408.06;5032323;28;20026;-60
2021/10/17 04:32:29;;;;;;;14.27;7.88;;;;;;;6.49;68.37;99404.41;5032256;28;20036;-60
2021/10/17 04:34:55;;;;;;;13.43;7.00;;;;;;;7.85;63.81;99389.19;5031976;28;20029;-57
2021/10/17 04:37:20;;;;;;;13.15;7.25;;;;;;;8.92;59.48;99385.38;5031085;28;20026;-59
2021/10/17 04:39:46;;;;;;;11.20;6.93;;;;;;;9.49;57.64;99390.56;5030421;28;20041;-60
2021/10/17 04:42:11;;;;;;;10.65;7.07;;;;;;;9.68;56.99;99386.34;5032251;28;20037;-60
2021/10/17 04:44:38;;;;;;;11.52;7.25;;;;;;;9.94;56.11;99386.81;5030655;28;20088;-63
2021/10/17 04:47:04;;;;;;;10.43;6.60;;;;;;;10.19;55.21;99385.56;5030648;28;20028;-60
2021/10/17 04:49:30;;;;;;;12.27;6.80;;;;;;;9.90;55.65;99399.59;5032305;28;20037;-58
2021/10/17 04:51:55;;;;;;;12.02;7.40;;;;;;;9.42;57.00;99400.06;5031653;28;20030;-58
2021/10/17 04:54:22;;;;;;;11.57;7.63;;;;;;;8.96;58.13;99400.19;5031593;28;20029;-57
2021/10/17 04:56:47;;;;;;;12.57;7.63;;;;;;;8.58;59.81;99404.09;5032169;28;20037;-61
2021/10/17 04:59:15;;;;;;;12.18;7.38;;;;;;;8.36;60.20;99392.41;5032134;28;20148;-63
2021/10/17 05:01:41;;;;;;;11.10;7.00;;;;;;;8.75;59.54;99400.06;5030696;28;20033;-58
2021/10/17 05:04:06;;;;;;;12.82;7.80;;;;;;;9.40;57.30;99404.66;5032597;28;20386;-59
2021/10/17 05:06:32;;;;;;;11.55;7.13;;;;;;;10.12;55.37;99396.91;5031308;28;20040;-61
2021/10/17 05:08:57;;;;;;;9.15;6.43;;;;;;;10.22;53.77;99346.97;5030693;28;20473;-61
2021/10/17 05:11:25;;;;;;;10.68;6.78;;;;;;;10.81;52.82;99397.25;5015626;28;20514;-57
2021/10/17 05:13:51;;;;;;;12.93;6.72;;;;;;;11.39;51.50;99399.22;5031768;28;20486;-56
2021/10/17 05:16:16;;;;;;;11.35;6.47;;;;;;;12.36;49.01;99401.97;5031574;28;20033;-59
2021/10/17 05:18:41;;;;;;;10.35;6.50;;;;;;;13.45;45.97;99407.66;5029125;28;20057;-61
2021/10/17 05:21:07;;;;;;;14.23;6.45;;;;;;;14.21;44.54;99400.88;5014165;28;20446;-58
2021/10/17 05:23:34;;;;;;;10.48;6.35;;;;;;;15.21;42.24;99399.53;5030188;28;20554;-60
2021/10/17 05:26:01;;;;;;;11.88;6.32;;;;;;;16.12;39.91;99396.06;5031140;28;20076;-55
2021/10/17 05:28:27;;;;;;;9.02;6.00;;;;;;;17.23;37.27;99400.81;5031483;28;20029;-60
2021/10/17 05:30:52;;;;;;;10.10;6.40;;;;;;;17.93;36.09;99400.81;5030312;28;20116;-61
2021/10/17 05:33:17;;;;;;;10.20;6.00;;;;;;;18.52;34.54;99402.00;5013235;28;20124;-61
2021/10/17 05:35:43;;;;;;;10.85;6.65;;;;;;;18.99;33.70;99402.63;5031545;28;20477;-61
2021/10/17 05:38:08;;;;;;;9.63;6.72;;;;;;;19.13;33.07;99405.53;5024919;28;20386;-58
2021/10/17 05:40:34;;;;;;;12.60;6.88;;;;;;;19.55;32.21;99406.63;5031521;28;20034;-61
2021/10/17 05:42:59;;;;;;;9.88;7.60;;;;;;;19.93;31.12;99409.09;5031033;28;20033;-59
2021/10/17 05:45:25;;;;;;;12.18;7.78;;;;;;;20.10;30.90;99399.81;5031021;28;20036;-60
2021/10/17 05:47:50;;;;;;;11.75;7.90;;;;;;;19.89;31.15;99405.06;5031315;28;20030;-62
2021/10/17 05:50:16;;;;;;;14.32;8.07;;;;;;;19.32;31.48;99402.22;5031743;28;20029;-63
2021/10/17 05:52:41;;;;;;;15.95;8.65;;;;;;;18.96;32.17;99383.19;5031468;28;20095;-59
2021/10/17 05:55:07;;;;;;;12.70;8.25;;;;;;;19.17;31.89;99409.53;5030663;28;20040;-60
2021/10/17 05:57:36;;;;;;;11.60;8.20;;;;;;;19.56;31.11;99410.19;5013429;28;20036;-60
2021/10/17 06:00:04;;;;;;;12.02;8.05;;;;;;;20.13;31.10;99413.88;5030172;28;20021;-61
2021/10/17 06:02:29;;;;;;;11.88;7.88;;;;;;;20.27;29.85;99397.69;5029422;28;20094;-60
2021/10/17 06:04:54;;;;;;;11.85;7.75;;;;;;;20.16;30.24;99391.72;5030706;28;20051;-60
2021/10/17 06:07:21;;;;;;;14.30;7.65;;;;;;;19.77;30.73;99410.19;5030568;28;20030;-54
2021/10/17 06:09:47;;;;;;;12.10;7.70;;;;;;;18.99;32.05;99407.25;5029721;28;20116;-61
2021/10/17 06:12:12;;;;;;;10.88;7.30;;;;;;;18.36;32.87;99411.97;5029316;28;20212;-60
2021/10/17 06:14:38;;;;;;;11.38;7.57;;;;;;;17.83;33.73;99420.03;5028623;28;20033;-60
2021/10/17 06:17:04;;;;;;;10.38;7.55;;;;;;;17.01;35.49;99418.69;5030033;28;20033;-60
2021/10/17 06:19:29;;;;;;;8.43;7.13;;;;;;;16.14;36.95;99426.44;5030965;28;20058;-60
2021/10/17 06:21:55;;;;;;;12.52;7.35;;;;;;;15.52;38.12;99421.50;5029208;28;20055;-60
2021/10/17 06:24:21;;;;;;;10.10;7.32;;;;;;;15.21;38.93;99415.72;5030413;28;20469;-59
2021/10/17 06:26:46;;;;;;;13.45;7.32;;;;;;;16.03;37.55;99414.13;5030988;28;20036;-61
2021/10/17 06:29:13;;;;;;;12.18;7.25;;;;;;;17.27;35.30;99423.78;5030124;28;20257;-60
2021/10/17 06:31:39;;;;;;;11.85;7.20;;;;;;;18.08;33.77;99425.25;5030344;28;20099;-61
2021/10/17 06:34:05;;;;;;;9.77;6.53;;;;;;;19.00;32.36;99426.03;5030344;28;20108;-61
2021/10/17 06:36:31;;;;;;;11.77;7.38;;;;;;;19.71;30.47;99423.69;5029133;28;20117;-62
2021/10/17 06:38:57;;;;;;;10.68;7.50;;;;;;;20.10;29.61;99408.81;5028968;28;20053;-59
2021/10/17 06:41:22;;;;;;;11.15;6.95;;;;;;;19.04;31.19;99402.91;5028758;28;20540;-58
2021/10/17 06:43:48;;;;;;;12.75;6.88;;;;;;;17.48;33.66;99384.44;5029612;28;20485;-60
2021/10/17 06:46:14;;;;;;;10.98;7.43;;;;;;;16.51;36.06;99424.19;5012681;28;20036;-61
2021/10/17 06:48:39;;;;;;;9.90;6.85;;;;;;;15.27;38.57;99429.53;5028753;28;20068;-60
2021/10/17 06:51:05;;;;;;;9.95;6.32;;;;;;;15.00;39.26;99423.38;5029333;28;20048;-61
2021/10/17 06:53:30;;;;;;;12.63;7.40;;;;;;;14.38;40.13;99398.31;5028509;28;20030;-61
2021/10/17 06:55:56;;;;;;;12.38;7.25;;;;;;;13.95;41.72;99437.69;5028506;28;20066;-61
2021/10/17 06:58:21;;;;;;;15.80;7.47;;;;;;;13.64;42.54;99428.22;5030947;28;20026;-61
2021/10/17 07:00:47;;;;;;;10.65;6.93;;;;;;;13.34;43.06;99423.00;5040535;28;20040;-60
2021/10/17 07:03:12;;;;;;;10.52;7.35;;;;;;;13.39;43.30;99425.25;5035478;28;20040;-63
2021/10/17 07:05:38;;;;;;;13.75;7.25;;;;;;;13.72;42.75;99433.66;5029809;28;20056;-63
2021/10/17 07:08:04;;;;;;;14.20;7.65;;;;;;;13.47;43.17;99435.25;5029343;28;20034;-63
2021/10/17 07:10:29;;;;;;;12.55;6.95;;;;;;;13.11;43.27;99397.53;5028440;28;20029;-62
2021/10/17 07:12:54;;;;;;;15.10;7.35;;;;;;;13.41;43.83;99423.25;5028282;28;20046;-61
2021/10/17 07:15:20;;;;;;;14.48;7.35;;;;;;;13.55;43.19;99431.78;5029124;28;20041;-61
2021/10/17 07:17:45;;;;;;;10.10;6.55;;;;;;;13.74;42.99;99436.16;5030168;28;20037;-62
2021/10/17 07:20:11;;;;;;;14.05;7.03;;;;;;;13.58;42.76;99409.97;5031013;28;20624;-64
2021/10/17 07:22:36;;;;;;;10.98;6.82;;;;;;;13.51;43.43;99444.72;5046313;28;20090;-62
2021/10/17 07:25:02;;;;;;;9.52;6.70;;;;;;;13.12;44.41;99455.69;5030313;28;20076;-63
2021/10/17 07:27:28;;;;;;;8.77;6.50;;;;;;;12.44;45.88;99422.72;5027782;28;20022;-63
2021/10/17 07:29:53;;;;;;;14.27;6.75;;;;;;;12.18;47.03;99445.66;5031428;28;20098;-62
2021/10/17 07:32:19;;;;;;;13.82;7.28;;;;;;;11.80;47.46;99446.50;5033263;28;20458;-63
2021/10/17 07:34:44;;;;;;;13.48;7.35;;;;;;;11.34;48.79;99450.56;5033948;28;20026;-63
2021/10/17 07:37:10;;;;;;;13.55;7.18;;;;;;;10.98;49.75;99447.50;5016314;28;20036;-61
2021/10/17 07:39:35;;;;;;;14.10;7.10;;;;;;;10.71;50.50;99448.09;5033112;28;20026;-63
2021/10/17 07:42:02;;;;;;;12.43;6.90;;;;;;;10.41;51.02;99441.75;5031938;28;20040;-59
2021/10/17 07:44:27;;;;;;;16.83;6.80;;;;;;;10.13;51.93;99450.31;5032543;28;20041;-62
2021/10/17 07:46:53;;;;;;;14.00;6.72;;;;;;;9.98;52.74;99452.41;5033397;28;20385;-64
2021/10/17 07:49:18;;;;;;;11.75;6.93;;;;;;;9.87;52.99;99456.00;5032006;28;20032;-59
2021/10/17 07:51:44;;;;;;;13.35;7.30;;;;;;;9.54;53.38;99423.09;5032727;28;20128;-61
2021/10/17 07:54:10;;;;;;;13.38;6.80;;;;;;;9.61;53.27;99456.34;5031986;28;20037;-61
2021/10/17 07:56:36;;;;;;;14.95;6.93;;;;;;;9.36;54.31;99457.53;5032386;28;20046;-62
2021/10/17 07:59:02;;;;;;;15.32;7.03;;;;;;;9.15;54.96;99457.44;5032886;28;20038;-59
2021/10/17 08:01:27;;;;;;;14.85;7.50;;;;;;;9.08;55.44;99477.59;5033415;28;20381;-57
2021/10/17 08:03:52;;;;;;;14.82;6.85;;;;;;;8.96;55.87;99466.06;5033431;28;20052;-60
2021/10/17 08:06:18;;;;;;;12.70;6.75;;;;;;;9.04;55.91;99485.84;5033171;28;20033;-64
2021/10/17 08:08:43;;;;;;;16.40;6.63;;;;;;;8.99;56.22;99479.19;5029795;28;20044;-57
2021/10/17 08:11:09;;;;;;;11.35;7.03;;;;;;;8.97;56.07;99473.13;5030359;28;20033;-57
2021/10/17 08:13:34;;;;;;;10.13;6.45;;;;;;;8.88;56.59;99464.00;5032209;28;20404;-61
2021/10/17 08:16:00;;;;;;;13.68;6.97;;;;;;;9.02;56.42;99482.47;5031809;28;20117;-65
2021/10/17 08:18:26;;;;;;;12.00;6.38;;;;;;;9.04;56.24;99472.50;5031577;28;20035;-60
2021/10/17 08:20:53;;;;;;;12.77;6.55;;;;;;;9.10;56.10;99475.66;5030418;28;20031;-60
2021/10/17 08:23:18;;;;;;;10.38;6.07;;;;;;;9.22;55.69;99498.72;5031127;28;20030;-61
2021/10/17 08:25:44;;;;;;;10.68;6.82;;;;;;;9.20;56.14;99498.00;5031150;28;20036;-61
2021/10/17 08:28:13;;;;;;;15.02;6.82;;;;;;;9.17;56.17;99498.25;5031629;28;20029;-61
2021/10/17 08:30:39;;;;;;;10.45;6.68;;;;;;;9.18;57.02;99513.28;5030164;28;20030;-63
2021/10/17 08:33:05;;;;;;;17.02;6.80;;;;;;;9.25;56.03;99509.16;5031895;28;20436;-62
2021/10/17 08:35:31;;;;;;;16.10;6.75;;;;;;;9.30;56.50;99506.13;5030797;28;20029;-58
2021/10/17 08:37:56;;;;;;;11.77;6.13;;;;;;;9.38;55.75;99492.13;5030873;28;20125;-58
2021/10/17 08:40:22;;;;;;;17.70;6.53;;;;;;;9.28;56.42;99508.91;5030912;28;20033;-60
2021/10/17 08:42:47;;;;;;;12.05;6.15;;;;;;;8.97;56.32;99463.28;5032124;28;20022;-60
2021/10/17 08:45:13;;;;;;;11.73;6.65;;;;;;;9.17;56.42;99506.25;5032067;28;20056;-59
2021/10/17 08:47:39;;;;;;;10.10;5.93;;;;;;;9.11;56.73;99506.72;5032532;28;20033;-59
2021/10/17 08:50:06;;;;;;;12.50;6.18;;;;;;;9.08;56.35;99501.63;5031050;28;20061;-62
2021/10/17 08:52:32;;;;;;;14.70;6.05;;;;;;;8.97;56.84;99500.69;5031976;28;20038;-62
2021/10/17 08:54:58;;;;;;;11.07;5.35;;;;;;;8.89;57.09;99503.09;5031243;28;20079;-58
2021/10/17 08:57:24;;;;;;;11.32;6.07;;;;;;;8.93;57.02;99509.91;5031754;28;20040;-61
2021/10/17 08:59:51;;;;;;;11.13;5.90;;;;;;;8.87;57.09;99502.34;5031835;28;20462;-59
2021/10/17 09:02:20;;;;;;;11.85;5.78;;;;;;;8.89;57.61;99508.41;5030851;28;20453;-63
2021/10/17 09:04:58;;;;;;;10.15;6.03;;;;;;;9.01;57.39;99506.59;5041761;28;20032;-60
2021/10/17 09:07:23;;;;;;;9.77;5.30;;;;;;;8.92;57.28;99496.66;5061874;28;20037;-60
2021/10/17 09:10:15;;;;;;;9.27;5.68;;;;;;;9.04;56.84;99507.22;5043311;28;20028;-62
2021/10/17 09:12:44;;;;;;;11.55;5.63;;;;;;;8.70;56.80;99464.53;5063749;28;20412;-60
2021/10/17 09:15:31;;;;;;;10.52;5.43;;;;;;;8.94;57.10;99495.59;5044965;28;20111;-62
2021/10/17 09:18:10;;;;;;;10.23;5.55;;;;;;;8.99;57.17;99493.41;5052823;28;20113;-64
2021/10/17 09:20:52;;;;;;;12.15;5.78;;;;;;;9.01;57.33;99499.47;5046431;28;20033;-64
2021/10/17 09:23:26;;;;;;;15.77;6.45;;;;;;;9.00;57.11;99495.09;5037345;28;20021;-63
2021/10/17 09:25:55;;;;;;;14.10;5.82;;;;;;;8.93;57.00;99499.22;5034982;28;20543;-64
2021/10/17 09:28:26;;;;;;;10.50;5.40;;;;;;;8.93;57.20;99503.69;5056699;28;20029;-64
2021/10/17 09:31:15;;;;;;;12.88;5.50;;;;;;;8.94;57.25;99495.59;5066219;28;20081;-64
2021/10/17 09:33:47;;;;;;;12.93;5.80;;;;;;;8.95;57.35;99497.28;5055719;28;20115;-64
2021/10/17 09:36:30;;;;;;;13.60;5.47;;;;;;;9.04;57.52;99501.00;5038864;28;20056;-60
2021/10/17 09:39:08;;;;;;;12.40;6.00;;;;;;;9.12;57.14;99500.41;5066126;28;20043;-62
2021/10/17 09:41:46;;;;;;;12.48;6.18;;;;;;;9.31;56.33;99497.13;5058210;28;20032;-61
2021/10/17 09:44:12;;;;;;;13.00;6.65;;;;;;;9.14;56.42;99464.59;5057119;28;20028;-61
2021/10/17 09:46:38;;;;;;;12.20;5.97;;;;;;;9.31;56.46;99492.63;5065786;28;20522;-63
2021/10/17 09:49:16;;;;;;;17.77;5.75;;;;;;;9.39;56.35;99489.34;5052573;28;20028;-64
2021/10/17 09:51:42;;;;;;;10.27;5.85;;;;;;;9.29;56.67;99489.22;5059528;28;20492;-64
2021/10/17 09:54:07;;;;;;;13.93;5.80;;;;;;;9.26;56.15;99475.25;5043963;28;20036;-61
2021/10/17 09:56:34;;;;;;;12.85;5.57;;;;;;;9.30;56.02;99485.59;5036502;28;20036;-63
2021/10/17 09:59:05;;;;;;;8.43;4.95;;;;;;;9.37;56.17;99491.28;5067847;28;20037;-64
2021/10/17 10:01:32;;;;;;;11.52;5.15;;;;;;;9.30;55.81;99469.56;5062406;28;20025;-64
2021/10/17 10:03:59;;;;;;;9.30;5.43;;;;;;;9.39;55.81;99480.47;5058889;28;20032;-62
2021/10/17 10:06:26;;;;;;;11.98;5.90;;;;;;;9.48;55.73;99488.56;5037879;28;20068;-61
2021/10/17 10:08:56;;;;;;;10.93;5.40;;;;;;;9.54;55.67;99491.75;5065123;28;20165;-64
2021/10/17 10:11:24;;;;;;;10.55;5.57;;;;;;;9.54;55.52;99481.06;5054298;28;20028;-65
2021/10/17 10:13:52;;;;;;;9.15;5.07;;;;;;;9.67;55.29;99467.53;5058949;28;20329;-66
2021/10/17 10:16:22;;;;;;;15.63;5.55;;;;;;;9.58;55.11;99451.25;5049526;28;20045;-64
2021/10/17 10:19:02;;;;;;;11.75;5.07;;;;;;;9.90;54.81;99479.84;5031996;28;20404;-64
2021/10/17 10:21:29;;;;;;;11.05;5.50;;;;;;;9.89;54.77;99486.16;5049444;28;20029;-66
2021/10/17 10:24:07;;;;;;;12.80;5.22;;;;;;;10.06;55.00;99483.88;5031669;28;20115;-63
2021/10/17 10:26:34;;;;;;;14.32;5.65;;;;;;;10.11;54.13;99476.31;5049543;28;20150;-65
2021/10/17 10:29:00;;;;;;;9.20;4.35;;;;;;;10.16;53.84;99484.81;5038016;28;20025;-64
2021/10/17 10:31:40;;;;;;;8.63;4.75;;;;;;;10.22;53.94;99480.75;5049936;28;20045;-64
2021/10/17 10:34:07;;;;;;;11.85;5.03;;;;;;;10.20;53.49;99470.19;5057774;28;20132;-63
2021/10/17 10:36:43;;;;;;;8.55;5.05;;;;;;;10.43;53.39;99483.47;5065968;28;20044;-65
2021/10/17 10:39:17;;;;;;;10.52;5.20;;;;;;;10.51;52.82;99471.25;5056130;28;20123;-64
2021/10/17 10:41:46;;;;;;;8.57;4.75;;;;;;;10.28;52.93;99433.91;5055495;28;20025;-63
2021/10/17 10:44:13;;;;;;;8.68;5.05;;;;;;;10.58;52.49;99467.06;5066066;28;20140;-66
2021/10/17 10:46:40;;;;;;;10.68;5.85;;;;;;;10.44;52.42;99458.41;5051835;28;20469;-62
2021/10/17 10:49:05;;;;;;;10.85;5.68;;;;;;;10.49;53.14;99466.03;5061880;28;20388;-63
2021/10/17 10:51:41;;;;;;;10.60;5.40;;;;;;;10.53;52.64;99472.81;5059524;28;20037;-65
2021/10/17 10:54:27;;;;;;;9.88;5.28;;;;;;;10.38;53.28;99472.28;5051288;28;20044;-63
2021/10/17 10:56:55;;;;;;;15.30;5.00;;;;;;;10.41;52.94;99466.69;5041386;28;20029;-65
2021/10/17 10:59:25;;;;;;;7.78;4.55;;;;;;;10.43;53.38;99466.56;5058371;28;20037;-58
2021/10/17 11:01:55;;;;;;;11.40;5.38;;;;;;;10.37;53.72;99465.25;5063236;28;20762;-63
2021/10/17 11:04:42;;;;;;;10.30;5.65;;;;;;;10.48;53.40;99459.84;5045529;28;20040;-62
2021/10/17 11:07:20;;;;;;;11.50;5.85;;;;;;;10.44;53.57;99453.06;5063785;28;20473;-62
2021/10/17 11:09:47;;;;;;;10.43;5.72;;;;;;;10.30;54.42;99467.59;5064872;28;20115;-65
2021/10/17 11:12:40;;;;;;;11.23;5.50;;;;;;;10.43;53.93;99463.88;5055045;28;20060;-64
2021/10/17 11:15:12;;;;;;;11.32;6.10;;;;;;;10.14;53.66;99432.41;5065712;28;20105;-63
2021/10/17 11:17:46;;;;;;;9.73;5.43;;;;;;;10.25;53.99;99460.91;5065381;28;20623;-63
2021/10/17 11:20:19;;;;;;;10.93;5.43;;;;;;;10.29;54.53;99454.31;5054754;28;20029;-63
2021/10/17 11:22:46;;;;;;;14.10;4.85;;;;;;;10.30;53.74;99448.00;5070952;28;20025;-62
2021/10/17 11:25:18;;;;;;;9.35;4.63;;;;;;;10.43;53.01;99446.00;5046193;28;20024;-61
2021/10/17 11:27:44;;;;;;;10.30;4.95;;;;;;;10.38;52.91;99437.50;5065990;28;20146;-62
2021/10/17 11:30:25;;;;;;;10.75;4.78;;;;;;;10.52;53.21;99438.16;5056276;28;20055;-63